Time;durP1;ratioP1;P1;durP2;ratioP2;P2;SDS_P1;SDS_P2;PMS_P1;PMS_P2;Temp;Humidity;BMP_temperature;BMP_pressure;BME280_temperature;BME280_humidity;BME280_pressure;Samples;Min_cycle;Max_cycle;Signal;HPM_P1;HPM_P2
2023/10/25 01:36:53;;;;;;;1999.90;999.90;;;9.40;99.90;;;;;;6156299;23;20070;-77
2023/10/25 01:39:19;;;;;;;1999.90;999.90;;;9.40;99.90;;;;;;6129521;23;20428;-76
2023/10/25 01:41:44;;;;;;;1999.90;999.90;;;9.40;99.90;;;;;;6129734;23;20399;-78
2023/10/25 01:44:10;;;;;;;1999.90;999.90;;;9.30;99.90;;;;;;6129733;23;20064;-77
2023/10/25 01:46:36;;;;;;;1999.90;999.90;;;9.30;99.90;;;;;;6129891;23;20068;-77
2023/10/25 01:49:01;;;;;;;1999.90;999.90;;;9.30;99.90;;;;;;6129677;23;20049;-76
2023/10/25 01:51:27;;;;;;;1999.90;999.90;;;9.20;99.90;;;;;;6129680;23;20048;-77
2023/10/25 01:53:52;;;;;;;1999.90;999.90;;;9.20;99.90;;;;;;6129647;23;20025;-77
2023/10/25 01:56:18;;;;;;;1999.90;999.90;;;9.10;99.90;;;;;;6129481;23;20013;-77
2023/10/25 01:58:44;;;;;;;1999.90;999.90;;;9.10;99.90;;;;;;6129923;23;20018;-78
2023/10/25 02:01:09;;;;;;;1999.90;999.90;;;9.10;99.90;;;;;;6129616;23;20014;-77
2023/10/25 02:03:35;;;;;;;1999.90;999.90;;;9.10;99.90;;;;;;6105184;23;20375;-77
2023/10/25 02:06:13;;;;;;;1999.90;999.90;;;9.00;99.90;;;;;;6129519;23;20088;-77
2023/10/25 02:08:39;;;;;;;1999.90;999.90;;;9.00;99.90;;;;;;6129560;23;20017;-76
2023/10/25 02:11:06;;;;;;;1999.90;999.90;;;9.00;99.90;;;;;;6129476;23;20024;-77
2023/10/25 02:13:31;;;;;;;1999.90;999.90;;;9.00;99.90;;;;;;6129494;23;20018;-76
2023/10/25 02:15:57;;;;;;;1999.90;999.90;;;9.00;99.90;;;;;;6129406;23;20049;-77
2023/10/25 02:18:23;;;;;;;1999.90;999.90;;;9.10;99.90;;;;;;6129419;23;20017;-76
2023/10/25 02:20:48;;;;;;;1999.90;999.90;;;9.10;99.90;;;;;;6129376;23;20017;-76
2023/10/25 02:23:14;;;;;;;1999.90;999.90;;;9.10;99.90;;;;;;6129407;23;20084;-78
2023/10/25 02:25:39;;;;;;;1999.90;999.90;;;9.10;99.90;;;;;;6129449;23;20072;-77
2023/10/25 02:28:05;;;;;;;1999.90;999.90;;;9.10;99.90;;;;;;6129456;23;20467;-77
2023/10/25 02:30:31;;;;;;;1999.90;999.90;;;9.10;99.90;;;;;;6129362;23;20018;-77
2023/10/25 02:32:57;;;;;;;1999.90;999.90;;;9.10;99.90;;;;;;6105047;23;20013;-78
2023/10/25 02:35:22;;;;;;;1999.90;999.90;;;9.20;99.90;;;;;;6105939;23;20424;-77
2023/10/25 02:37:48;;;;;;;1999.90;999.90;;;9.10;99.90;;;;;;6125904;23;20022;-76
2023/10/25 02:40:14;;;;;;;1999.90;999.90;;;9.20;99.90;;;;;;6128108;23;20017;-77
2023/10/25 02:42:42;;;;;;;1999.90;999.90;;;9.20;99.90;;;;;;6126248;23;20443;-77
2023/10/25 02:45:08;;;;;;;1999.90;999.90;;;9.20;99.90;;;;;;6126279;23;20014;-77
2023/10/25 02:47:34;;;;;;;1999.90;999.90;;;9.20;99.90;;;;;;6126148;23;20502;-77
2023/10/25 02:49:59;;;;;;;1999.90;999.90;;;9.20;99.90;;;;;;6126155;23;20018;-77
2023/10/25 02:52:25;;;;;;;1999.90;999.90;;;9.20;99.90;;;;;;6126116;23;20069;-77
2023/10/25 02:54:54;;;;;;;1999.90;999.90;;;9.20;99.90;;;;;;6126157;23;20388;-77
2023/10/25 02:57:19;;;;;;;1999.90;999.90;;;9.20;99.90;;;;;;6126013;23;20097;-77
2023/10/25 02:59:45;;;;;;;1999.90;999.90;;;9.20;99.90;;;;;;6126051;23;20046;-78
2023/10/25 03:02:13;;;;;;;1999.90;999.90;;;9.20;99.90;;;;;;6128282;23;20427;-78
2023/10/25 03:04:38;;;;;;;1999.90;999.90;;;9.20;99.90;;;;;;6126069;23;20440;-77
2023/10/25 03:07:04;;;;;;;1999.90;999.90;;;9.10;99.90;;;;;;6125978;23;20010;-77
2023/10/25 03:09:29;;;;;;;1999.90;999.90;;;9.10;99.90;;;;;;6126068;23;20026;-78
2023/10/25 03:11:55;;;;;;;1999.90;999.90;;;9.10;99.90;;;;;;6125988;23;20093;-78
2023/10/25 03:14:21;;;;;;;1999.90;999.90;;;9.00;99.90;;;;;;6127581;23;20017;-76
2023/10/25 03:16:49;;;;;;;1999.90;999.90;;;9.00;99.90;;;;;;6125894;23;20400;-78
2023/10/25 03:19:14;;;;;;;1999.90;999.90;;;9.00;99.90;;;;;;6125967;23;20018;-77
2023/10/25 03:21:41;;;;;;;1999.90;999.90;;;9.00;99.90;;;;;;6126322;23;20380;-77
2023/10/25 03:24:07;;;;;;;1999.90;999.90;;;9.00;99.90;;;;;;6101469;23;20049;-76
2023/10/25 03:26:33;;;;;;;1999.90;999.90;;;9.00;99.90;;;;;;6125817;23;20021;-77
2023/10/25 03:28:59;;;;;;;1999.90;999.90;;;8.90;99.90;;;;;;6125826;23;20045;-78
2023/10/25 03:31:25;;;;;;;1999.90;999.90;;;8.90;99.90;;;;;;6127156;23;20057;-78
2023/10/25 03:33:50;;;;;;;1999.90;999.90;;;8.90;99.90;;;;;;6128079;23;20016;-78
2023/10/25 03:36:16;;;;;;;1999.90;999.90;;;8.80;99.90;;;;;;6136018;23;20039;-77
2023/10/25 03:38:41;;;;;;;1999.90;999.90;;;8.80;99.90;;;;;;6130596;23;20447;-76
2023/10/25 03:41:08;;;;;;;1999.90;999.90;;;8.80;99.90;;;;;;6130510;23;20014;-77
2023/10/25 03:43:35;;;;;;;1999.90;999.90;;;8.80;99.90;;;;;;6130540;23;20024;-77
2023/10/25 03:46:05;;;;;;;1999.90;999.90;;;8.70;99.90;;;;;;6156838;23;20101;-78
2023/10/25 03:48:32;;;;;;;1999.90;999.90;;;8.70;99.90;;;;;;6130502;23;20017;-77
2023/10/25 03:50:58;;;;;;;1999.90;999.90;;;8.60;99.90;;;;;;6130494;23;20022;-77
2023/10/25 03:53:23;;;;;;;1999.90;999.90;;;8.60;99.90;;;;;;6130514;23;20017;-77
2023/10/25 03:55:56;;;;;;;1999.90;999.90;;;8.50;99.90;;;;;;6130499;23;20017;-78
2023/10/25 03:58:25;;;;;;;1999.90;999.90;;;8.50;99.90;;;;;;6106401;23;20089;-77
2023/10/25 04:00:58;;;;;;;1999.90;999.90;;;8.50;99.90;;;;;;6131320;23;20084;-77
2023/10/25 04:03:24;;;;;;;1999.90;999.90;;;8.50;99.90;;;;;;6130371;23;20056;-77
2023/10/25 04:05:49;;;;;;;1999.90;999.90;;;8.40;99.90;;;;;;6156404;23;20009;-78
2023/10/25 04:08:15;;;;;;;1999.90;999.90;;;8.40;99.90;;;;;;6130343;23;20014;-77
2023/10/25 04:10:41;;;;;;;1999.90;999.90;;;8.40;99.90;;;;;;6130444;23;20033;-78
2023/10/25 04:13:07;;;;;;;1999.90;999.90;;;8.40;99.90;;;;;;6130359;23;20456;-77
2023/10/25 04:15:35;;;;;;;1999.90;999.90;;;8.40;99.90;;;;;;6157003;23;20434;-77
2023/10/25 04:18:01;;;;;;;1999.90;999.90;;;8.30;99.90;;;;;;6130162;23;20516;-76
2023/10/25 04:20:32;;;;;;;1999.90;999.90;;;8.30;99.90;;;;;;6130199;23;20076;-77
2023/10/25 04:22:57;;;;;;;1999.90;999.90;;;8.30;99.90;;;;;;6130258;23;20379;-77
2023/10/25 04:25:23;;;;;;;1999.90;999.90;;;8.30;99.90;;;;;;6130258;23;20017;-77
2023/10/25 04:27:48;;;;;;;1999.90;999.90;;;8.30;99.90;;;;;;6130452;23;20013;-77
2023/10/25 04:30:14;;;;;;;1999.90;999.90;;;8.30;99.90;;;;;;6156384;23;20009;-78
2023/10/25 04:32:40;;;;;;;1999.90;999.90;;;8.30;99.90;;;;;;6131487;23;20017;-77
2023/10/25 04:35:05;;;;;;;1999.90;999.90;;;8.30;99.90;;;;;;6130296;23;20006;-78
2023/10/25 04:37:31;;;;;;;1999.90;999.90;;;8.30;99.90;;;;;;6130344;23;20364;-77
2023/10/25 04:39:57;;;;;;;1999.90;999.90;;;8.30;99.90;;;;;;6156057;23;20037;-77
2023/10/25 04:42:22;;;;;;;1999.90;999.90;;;8.20;99.90;;;;;;6130676;23;20017;-77
2023/10/25 04:44:48;;;;;;;1999.90;999.90;;;8.20;99.90;;;;;;6129987;23;20009;-77
2023/10/25 04:47:13;;;;;;;1999.90;999.90;;;8.20;99.90;;;;;;6156116;23;20436;-78
2023/10/25 04:49:39;;;;;;;1999.90;999.90;;;8.20;99.90;;;;;;6131387;23;20013;-77
2023/10/25 04:52:05;;;;;;;1999.90;999.90;;;8.20;99.90;;;;;;6130032;23;20395;-78
2023/10/25 04:54:31;;;;;;;1999.90;999.90;;;8.20;99.90;;;;;;6129932;23;20014;-77
2023/10/25 04:56:59;;;;;;;1999.90;999.90;;;8.20;99.90;;;;;;6155856;23;20013;-77
2023/10/25 04:59:27;;;;;;;1999.90;999.90;;;8.10;99.90;;;;;;6129788;23;20017;-77
2023/10/25 05:01:53;;;;;;;1999.90;999.90;;;8.10;99.90;;;;;;6156616;23;20006;-77
2023/10/25 05:04:18;;;;;;;1999.90;999.90;;;8.10;99.90;;;;;;6155988;23;20578;-77
2023/10/25 05:06:44;;;;;;;1999.90;999.90;;;8.10;99.90;;;;;;6129716;23;20013;-77
2023/10/25 05:09:10;;;;;;;1999.90;999.90;;;8.10;99.90;;;;;;6129809;23;20017;-77
2023/10/25 05:11:38;;;;;;;1999.90;999.90;;;8.10;99.90;;;;;;6129822;23;20013;-77
2023/10/25 05:14:04;;;;;;;1999.90;999.90;;;8.10;99.90;;;;;;6105401;23;20013;-78
2023/10/25 05:16:30;;;;;;;1999.90;999.90;;;8.00;99.90;;;;;;6105236;23;20075;-77
2023/10/25 05:18:55;;;;;;;1999.90;999.90;;;8.00;99.90;;;;;;6129574;23;20321;-78
2023/10/25 05:21:26;;;;;;;1999.90;999.90;;;8.00;99.90;;;;;;6129740;23;20024;-77
2023/10/25 05:23:52;;;;;;;1999.90;999.90;;;8.00;99.90;;;;;;6129641;23;20434;-77
2023/10/25 05:26:18;;;;;;;1999.90;999.90;;;7.90;99.90;;;;;;6129539;23;20064;-76
2023/10/25 05:28:44;;;;;;;1999.90;999.90;;;8.00;99.90;;;;;;6156124;23;20068;-80
2023/10/25 05:31:16;;;;;;;1999.90;999.90;;;8.00;99.90;;;;;;6129664;23;20379;-78
2023/10/25 05:33:41;;;;;;;1999.90;999.90;;;8.00;99.90;;;;;;6129785;23;20080;-77
2023/10/25 05:36:08;;;;;;;1999.90;999.90;;;7.90;99.90;;;;;;6129602;23;20017;-78
2023/10/25 05:38:34;;;;;;;1999.90;999.90;;;7.90;99.90;;;;;;6129432;23;20017;-78
2023/10/25 05:41:00;;;;;;;1999.90;999.90;;;8.00;99.90;;;;;;6129559;23;20049;-77
2023/10/25 05:43:33;;;;;;;1999.90;999.90;;;8.00;99.90;;;;;;6155707;23;20010;-78
2023/10/25 05:45:59;;;;;;;1999.90;999.90;;;7.90;99.90;;;;;;6156712;23;20040;-77
2023/10/25 05:48:25;;;;;;;1999.90;999.90;;;8.00;99.90;;;;;;6129612;23;20025;-76
2023/10/25 05:50:51;;;;;;;1999.90;999.90;;;7.90;99.90;;;;;;6129739;23;20053;-77
2023/10/25 05:53:18;;;;;;;1999.90;999.90;;;7.90;99.90;;;;;;6129534;23;20024;-77
2023/10/25 05:55:45;;;;;;;1999.90;999.90;;;7.90;99.90;;;;;;6129429;23;20018;-77
2023/10/25 05:58:10;;;;;;;1999.90;999.90;;;7.90;99.90;;;;;;6129604;23;20028;-78
2023/10/25 06:00:36;;;;;;;1999.90;999.90;;;7.90;99.90;;;;;;6155627;23;20081;-77
2023/10/25 06:03:02;;;;;;;1999.90;999.90;;;7.90;99.90;;;;;;6129458;23;20088;-77
2023/10/25 06:05:33;;;;;;;1999.90;999.90;;;7.90;99.90;;;;;;6129517;23;20010;-78
2023/10/25 06:07:59;;;;;;;1999.90;999.90;;;7.90;99.90;;;;;;6129326;23;20077;-77
2023/10/25 06:10:25;;;;;;;1999.90;999.90;;;7.90;99.90;;;;;;6130987;23;20052;-77
2023/10/25 06:12:51;;;;;;;1999.90;999.90;;;7.90;99.90;;;;;;6131737;23;20395;-77
2023/10/25 06:15:16;;;;;;;1999.90;999.90;;;7.90;99.90;;;;;;6131215;23;20009;-77
2023/10/25 06:17:42;;;;;;;1999.90;999.90;;;7.90;99.90;;;;;;6157076;23;20037;-77
2023/10/25 06:20:10;;;;;;;1999.90;999.90;;;7.90;99.90;;;;;;6130978;23;20022;-76
2023/10/25 06:22:35;;;;;;;1999.90;999.90;;;7.90;99.90;;;;;;6106978;23;20014;-77
2023/10/25 06:25:03;;;;;;;1999.90;999.90;;;7.90;99.90;;;;;;6157415;23;20016;-77
2023/10/25 06:27:29;;;;;;;1999.90;999.90;;;7.80;99.90;;;;;;6130763;23;20014;-78
2023/10/25 06:29:55;;;;;;;1999.90;999.90;;;7.80;99.90;;;;;;6131165;23;20024;-78
2023/10/25 06:32:21;;;;;;;1999.90;999.90;;;7.80;99.90;;;;;;6131162;23;20049;-77
2023/10/25 06:34:46;;;;;;;1999.90;999.90;;;7.90;99.90;;;;;;6131088;23;20014;-78
2023/10/25 06:37:12;;;;;;;1999.90;999.90;;;7.80;99.90;;;;;;6130842;23;20439;-78
2023/10/25 06:39:38;;;;;;;1999.90;999.90;;;7.80;99.90;;;;;;6156870;23;20065;-78
2023/10/25 06:42:04;;;;;;;1999.90;999.90;;;7.90;99.90;;;;;;6130905;23;20017;-77
2023/10/25 06:44:30;;;;;;;1999.90;999.90;;;7.90;99.90;;;;;;6131080;23;20014;-77
2023/10/25 06:46:56;;;;;;;1999.90;999.90;;;7.80;99.90;;;;;;6157043;23;20009;-77
2023/10/25 06:49:22;;;;;;;1999.90;999.90;;;7.80;99.90;;;;;;6130879;23;20088;-76
2023/10/25 06:51:47;;;;;;;1999.90;999.90;;;7.90;99.90;;;;;;6157154;23;20109;-77
2023/10/25 06:54:13;;;;;;;1999.90;999.90;;;7.80;99.90;;;;;;6130908;23;20013;-77
2023/10/25 06:56:39;;;;;;;1999.90;999.90;;;7.80;99.90;;;;;;6130685;23;20014;-77
2023/10/25 06:59:06;;;;;;;1999.90;999.90;;;7.90;99.90;;;;;;6130707;23;20316;-76
2023/10/25 07:01:34;;;;;;;1999.90;999.90;;;7.80;99.90;;;;;;6130638;23;20064;-78
2023/10/25 07:04:02;;;;;;;1999.90;999.90;;;7.90;99.90;;;;;;6130849;23;20017;-77
2023/10/25 07:06:28;;;;;;;1999.90;999.90;;;7.90;99.90;;;;;;6157456;23;20373;-77
2023/10/25 07:08:54;;;;;;;1999.90;999.90;;;7.80;99.90;;;;;;6131048;23;20068;-77
2023/10/25 07:11:20;;;;;;;1999.90;999.90;;;7.80;99.90;;;;;;6157306;23;20059;-76
2023/10/25 07:13:45;;;;;;;1999.90;999.90;;;7.80;99.90;;;;;;6130920;23;20068;-76
2023/10/25 07:16:11;;;;;;;1999.90;999.90;;;7.80;99.90;;;;;;6130791;23;20031;-75
2023/10/25 07:20:07;;;;;;;;;;;7.80;99.90;;;;;;5092336;28;20406;-76
2023/10/25 07:22:33;;;;;;;1999.90;999.90;;;7.80;99.90;;;;;;5091641;28;20059;-77
2023/10/25 07:24:59;;;;;;;1999.90;999.90;;;7.80;99.90;;;;;;5089439;28;20478;-77
2023/10/25 07:27:25;;;;;;;1999.90;999.90;;;7.80;99.90;;;;;;5089264;28;20127;-78
2023/10/25 07:29:50;;;;;;;1999.90;999.90;;;7.90;99.90;;;;;;5090648;28;20074;-78
2023/10/25 07:32:16;;;;;;;1999.90;999.90;;;7.90;99.90;;;;;;5090834;28;20498;-78
2023/10/25 07:34:42;;;;;;;1999.90;999.90;;;7.90;99.90;;;;;;5072517;28;20040;-77
2023/10/25 07:37:08;;;;;;;1999.90;999.90;;;7.90;99.90;;;;;;5088995;28;20518;-77
2023/10/25 07:39:33;;;;;;;1999.90;999.90;;;7.90;99.90;;;;;;5088890;28;20449;-77
2023/10/25 07:42:01;;;;;;;1999.90;999.90;;;8.00;99.90;;;;;;5088933;28;20036;-78
2023/10/25 07:44:28;;;;;;;1999.90;999.90;;;8.00;99.90;;;;;;5088957;28;20048;-78
2023/10/25 07:46:53;;;;;;;1999.90;999.90;;;8.00;99.90;;;;;;5088685;28;20044;-77
2023/10/25 07:49:19;;;;;;;1999.90;999.90;;;8.00;99.90;;;;;;5088743;28;20032;-77
2023/10/25 07:51:44;;;;;;;1999.90;999.90;;;8.00;99.90;;;;;;5088982;28;20044;-77
2023/10/25 07:54:10;;;;;;;1999.90;999.90;;;8.10;99.90;;;;;;5072250;28;20082;-77
2023/10/25 07:56:36;;;;;;;1999.90;999.90;;;8.10;99.90;;;;;;5089954;28;20037;-77
2023/10/25 07:59:02;;;;;;;1999.90;999.90;;;8.10;99.90;;;;;;5088620;28;20048;-78
2023/10/25 08:01:28;;;;;;;1999.90;999.90;;;8.20;99.90;;;;;;5088610;28;20032;-78
2023/10/25 08:03:54;;;;;;;1999.90;999.90;;;8.20;99.90;;;;;;5088555;28;20036;-78
2023/10/25 08:06:20;;;;;;;1999.90;999.90;;;8.20;99.90;;;;;;5088908;28;20032;-78
2023/10/25 08:08:48;;;;;;;1999.90;999.90;;;8.20;99.90;;;;;;5088453;28;20040;-78
2023/10/25 08:11:14;;;;;;;1999.90;999.90;;;8.20;99.90;;;;;;5088537;28;20084;-79
2023/10/25 08:13:42;;;;;;;1999.90;999.90;;;8.20;99.90;;;;;;5088479;28;20052;-78
2023/10/25 08:16:08;;;;;;;1999.90;999.90;;;8.30;99.90;;;;;;5089863;28;20040;-79
2023/10/25 08:18:35;;;;;;;1999.90;999.90;;;8.30;99.90;;;;;;5088408;28;20341;-78
2023/10/25 08:21:01;;;;;;;1999.90;999.90;;;8.30;99.90;;;;;;5089569;28;20060;-78
2023/10/25 08:23:27;;;;;;;1999.90;999.90;;;8.40;99.90;;;;;;5089285;28;20079;-78
2023/10/25 08:25:53;;;;;;;1999.90;999.90;;;8.40;99.90;;;;;;5088135;28;20071;-78
2023/10/25 08:28:19;;;;;;;1999.90;999.90;;;8.40;99.90;;;;;;5088495;28;20102;-78
2023/10/25 08:30:45;;;;;;;1999.90;999.90;;;8.50;99.90;;;;;;5078703;28;20045;-78
2023/10/25 08:33:11;;;;;;;1999.90;999.90;;;8.50;99.90;;;;;;5074882;28;20040;-78
2023/10/25 08:35:37;;;;;;;1999.90;999.90;;;8.50;99.90;;;;;;5074438;28;20115;-78
2023/10/25 08:38:06;;;;;;;1999.90;999.90;;;8.60;99.90;;;;;;5074810;28;20045;-78
2023/10/25 08:40:32;;;;;;;1999.90;999.90;;;8.60;99.90;;;;;;5076004;28;20041;-78
2023/10/25 08:43:01;;;;;;;1999.90;999.90;;;8.60;99.90;;;;;;5074035;28;20515;-79
2023/10/25 08:45:29;;;;;;;1999.90;999.90;;;8.70;99.90;;;;;;5073371;28;20037;-79
2023/10/25 08:47:55;;;;;;;1999.90;999.90;;;8.70;99.90;;;;;;5074277;28;20036;-77
2023/10/25 08:50:20;;;;;;;1999.90;999.90;;;8.80;99.90;;;;;;5074299;28;20051;-77
2023/10/25 08:52:49;;;;;;;1999.90;999.90;;;8.80;99.90;;;;;;5074373;28;20102;-78
2023/10/25 08:55:18;;;;;;;1999.90;999.90;;;8.80;99.90;;;;;;5074490;28;20422;-77
2023/10/25 08:57:44;;;;;;;1999.90;999.90;;;8.90;99.90;;;;;;5074550;28;20072;-77
2023/10/25 09:00:12;;;;;;;1999.90;999.90;;;8.90;99.90;;;;;;5074164;28;20121;-78
2023/10/25 09:02:38;;;;;;;1999.90;999.90;;;8.90;99.90;;;;;;5074048;28;20480;-79
2023/10/25 09:05:08;;;;;;;1999.90;999.90;;;9.00;99.90;;;;;;5075577;28;20039;-78
2023/10/25 09:07:37;;;;;;;1999.90;999.90;;;9.00;99.90;;;;;;5073892;28;20071;-78
2023/10/25 09:10:15;;;;;;;1999.90;999.90;;;9.00;99.90;;;;;;5074221;28;20135;-78
2023/10/25 09:12:41;;;;;;;1999.90;999.90;;;9.00;99.90;;;;;;5073853;28;20048;-77
2023/10/25 09:15:07;;;;;;;1999.90;999.90;;;9.10;99.90;;;;;;5073691;28;20047;-76
2023/10/25 09:17:35;;;;;;;1999.90;999.90;;;9.10;99.90;;;;;;5073673;28;20487;-78
2023/10/25 09:20:00;;;;;;;1999.90;999.90;;;9.20;99.90;;;;;;5056902;28;20044;-78
2023/10/25 09:22:28;;;;;;;1999.90;999.90;;;9.30;99.90;;;;;;5075726;28;20063;-78
2023/10/25 09:25:03;;;;;;;1999.90;999.90;;;9.30;99.90;;;;;;5075119;28;20062;-78
2023/10/25 09:27:30;;;;;;;1999.90;999.90;;;9.40;99.90;;;;;;5073730;28;20112;-77
2023/10/25 09:30:15;;;;;;;1999.90;999.90;;;9.40;99.90;;;;;;5073431;28;20048;-78
2023/10/25 09:32:40;;;;;;;1999.90;999.90;;;9.50;99.90;;;;;;5074835;28;20510;-79
2023/10/25 09:35:07;;;;;;;1999.90;999.90;;;9.60;99.90;;;;;;5073607;28;20040;-78
2023/10/25 09:37:32;;;;;;;1999.90;999.90;;;9.60;99.90;;;;;;5074865;28;20047;-78
2023/10/25 09:39:58;;;;;;;1999.90;999.90;;;9.70;99.90;;;;;;5074312;28;20404;-78
2023/10/25 09:42:26;;;;;;;1999.90;999.90;;;9.80;99.90;;;;;;5073599;28;20051;-78
2023/10/25 09:44:59;;;;;;;1999.90;999.90;;;9.90;99.90;;;;;;5074495;28;20045;-77
2023/10/25 09:47:29;;;;;;;1999.90;999.90;;;10.00;99.90;;;;;;5074365;28;20102;-77
2023/10/25 09:50:02;;;;;;;1999.90;999.90;;;10.10;99.90;;;;;;5056389;28;20044;-78
2023/10/25 09:52:30;;;;;;;1999.90;999.90;;;10.10;99.90;;;;;;5073217;28;20055;-78
2023/10/25 09:55:07;;;;;;;1999.90;999.90;;;10.20;99.90;;;;;;5073276;28;20442;-76
2023/10/25 09:57:33;;;;;;;1999.90;999.90;;;10.30;99.90;;;;;;5073052;28;20097;-77
2023/10/25 10:00:00;;;;;;;1999.90;999.90;;;10.40;99.90;;;;;;5072821;28;20446;-77
2023/10/25 10:03:06;;;;;;;1999.90;999.90;;;10.40;99.90;;;;;;5072975;28;20479;-78
2023/10/25 10:05:40;;;;;;;1999.90;999.90;;;10.50;99.90;;;;;;5055540;28;20123;-79
2023/10/25 10:08:17;;;;;;;1999.90;999.90;;;10.50;99.90;;;;;;5056171;28;20044;-78
2023/10/25 10:10:58;;;;;;;1999.90;999.90;;;10.50;99.90;;;;;;5072804;28;20044;-79
2023/10/25 10:13:26;;;;;;;1999.90;999.90;;;10.60;99.90;;;;;;5074088;28;20029;-77
2023/10/25 10:16:05;;;;;;;1999.90;999.90;;;10.60;99.90;;;;;;5072565;28;20110;-77
2023/10/25 10:18:41;;;;;;;1999.90;999.90;;;10.60;99.90;;;;;;5073681;28;20041;-78
2023/10/25 10:21:09;;;;;;;1999.90;999.90;;;10.70;99.90;;;;;;5073022;28;20064;-77
2023/10/25 10:23:39;;;;;;;1999.90;999.90;;;10.70;99.90;;;;;;5072356;28;20075;-78
2023/10/25 10:26:07;;;;;;;1999.90;999.90;;;10.70;99.90;;;;;;5055727;28;20040;-80
2023/10/25 10:28:51;;;;;;;1999.90;999.90;;;10.80;99.90;;;;;;5055792;28;20044;-77
2023/10/25 10:31:17;;;;;;;1999.90;999.90;;;10.80;99.90;;;;;;5072684;28;20388;-79
2023/10/25 10:33:49;;;;;;;1999.90;999.90;;;10.90;99.90;;;;;;5073647;28;20043;-77
2023/10/25 10:36:31;;;;;;;1999.90;999.90;;;10.90;99.90;;;;;;5073853;28;20040;-79
2023/10/25 10:39:16;;;;;;;1999.90;999.90;;;10.90;99.90;;;;;;5073995;28;20043;-77
2023/10/25 10:41:44;;;;;;;1999.90;999.90;;;11.00;99.90;;;;;;5072342;28;20115;-79
2023/10/25 10:44:13;;;;;;;1999.90;999.90;;;11.00;99.90;;;;;;5073578;28;20090;-78
2023/10/25 10:46:53;;;;;;;1999.90;999.90;;;11.00;99.90;;;;;;5071953;28;20488;-77
2023/10/25 10:49:21;;;;;;;1999.90;999.90;;;11.00;99.90;;;;;;5072048;28;20083;-77
2023/10/25 10:51:48;;;;;;;1999.90;999.90;;;11.10;99.90;;;;;;5071939;28;20044;-78
2023/10/25 10:54:13;;;;;;;1999.90;999.90;;;11.10;99.90;;;;;;5055083;28;20083;-78
2023/10/25 10:56:39;;;;;;;1999.90;999.90;;;11.20;99.90;;;;;;5071888;28;20076;-78
2023/10/25 10:59:06;;;;;;;1999.90;999.90;;;11.10;99.90;;;;;;5071936;28;20442;-78
2023/10/25 11:01:32;;;;;;;1999.90;999.90;;;11.10;99.90;;;;;;5073073;28;20076;-76
2023/10/25 11:03:58;;;;;;;1999.90;999.90;;;11.10;99.90;;;;;;5071833;28;20055;-78
2023/10/25 11:06:25;;;;;;;1999.90;999.90;;;11.10;99.90;;;;;;5072871;28;20040;-77
2023/10/25 11:08:57;;;;;;;1999.90;999.90;;;11.10;99.90;;;;;;5073254;28;20475;-78
2023/10/25 11:11:23;;;;;;;1999.90;999.90;;;11.10;99.90;;;;;;5072810;28;20044;-78
2023/10/25 11:13:49;;;;;;;1999.90;999.90;;;11.10;99.90;;;;;;5072068;28;20446;-78
2023/10/25 11:16:16;;;;;;;1999.90;999.90;;;11.10;99.90;;;;;;5071653;28;20044;-78
2023/10/25 11:18:41;;;;;;;1999.90;999.90;;;11.10;99.90;;;;;;5071598;28;20082;-77
2023/10/25 11:21:07;;;;;;;1999.90;999.90;;;11.10;99.90;;;;;;5071722;28;20036;-77
2023/10/25 11:23:33;;;;;;;1999.90;999.90;;;11.00;99.90;;;;;;5071683;28;20079;-78
2023/10/25 11:25:58;;;;;;;1999.90;999.90;;;11.10;99.90;;;;;;5072848;28;20432;-78
2023/10/25 11:28:25;;;;;;;1999.90;999.90;;;11.00;99.90;;;;;;5071619;28;20043;-78
2023/10/25 11:30:51;;;;;;;1999.90;999.90;;;11.00;99.90;;;;;;5071581;28;20044;-78
2023/10/25 11:33:17;;;;;;;1999.90;999.90;;;11.00;99.90;;;;;;5072145;28;20051;-79
2023/10/25 11:35:43;;;;;;;1999.90;999.90;;;11.00;99.90;;;;;;5071667;28;20044;-78
2023/10/25 11:38:10;;;;;;;1999.90;999.90;;;11.00;99.90;;;;;;5072663;28;20127;-78
2023/10/25 11:40:38;;;;;;;1999.90;999.90;;;11.00;99.90;;;;;;5071443;28;20052;-79
2023/10/25 11:43:05;;;;;;;1999.90;999.90;;;11.00;99.90;;;;;;5071472;28;20072;-77
2023/10/25 11:45:32;;;;;;;1999.90;999.90;;;11.00;99.90;;;;;;5071699;28;20422;-78
2023/10/25 11:47:58;;;;;;;1999.90;999.90;;;11.00;99.90;;;;;;5071444;28;20051;-78
2023/10/25 11:50:23;;;;;;;1999.90;999.90;;;10.90;99.90;;;;;;5071691;28;20079;-78
2023/10/25 11:52:49;;;;;;;1999.90;999.90;;;10.90;99.90;;;;;;5072752;28;20500;-79
2023/10/25 11:55:15;;;;;;;1999.90;999.90;;;10.90;99.90;;;;;;5071653;28;20377;-78
2023/10/25 11:57:42;;;;;;;1999.90;999.90;;;10.90;99.90;;;;;;5071222;28;20098;-78
2023/10/25 12:00:10;;;;;;;1999.90;999.90;;;10.90;99.90;;;;;;5071344;28;20506;-78
2023/10/25 12:02:37;;;;;;;1999.90;999.90;;;10.90;99.90;;;;;;5072566;28;20037;-78
2023/10/25 12:05:05;;;;;;;1999.90;999.90;;;10.90;99.90;;;;;;5073639;28;20072;-77
2023/10/25 12:07:31;;;;;;;1999.90;999.90;;;10.90;99.90;;;;;;5058281;28;20052;-78
2023/10/25 12:09:58;;;;;;;1999.90;999.90;;;10.80;99.90;;;;;;5074903;28;20044;-78
2023/10/25 12:12:24;;;;;;;1999.90;999.90;;;10.90;99.90;;;;;;5076203;28;20029;-77
2023/10/25 12:14:50;;;;;;;1999.90;999.90;;;10.90;99.90;;;;;;5074813;28;20119;-78
2023/10/25 12:17:16;;;;;;;1999.90;999.90;;;10.80;99.90;;;;;;5074671;28;20048;-77
2023/10/25 12:19:42;;;;;;;1999.90;999.90;;;10.80;99.90;;;;;;5074683;28;20037;-79
2023/10/25 12:22:10;;;;;;;1999.90;999.90;;;10.80;99.90;;;;;;5074730;28;20041;-78
2023/10/25 12:24:37;;;;;;;1999.90;999.90;;;10.80;99.90;;;;;;5074677;28;20534;-77
2023/10/25 12:27:04;;;;;;;1999.90;999.90;;;10.80;99.90;;;;;;5058194;28;20432;-78
2023/10/25 12:29:30;;;;;;;1999.90;999.90;;;10.80;99.90;;;;;;5074832;28;20036;-78
2023/10/25 12:31:56;;;;;;;1999.90;999.90;;;10.70;99.90;;;;;;5076121;28;20507;-77
2023/10/25 12:34:25;;;;;;;1999.90;999.90;;;10.70;99.90;;;;;;5074906;28;20124;-76
2023/10/25 12:36:51;;;;;;;1999.90;999.90;;;10.70;99.90;;;;;;5074608;28;20037;-77
2023/10/25 12:39:17;;;;;;;1999.90;999.90;;;10.70;99.90;;;;;;5074790;28;20044;-78
2023/10/25 12:41:46;;;;;;;1999.90;999.90;;;10.70;99.90;;;;;;5074692;28;20037;-78
2023/10/25 12:44:14;;;;;;;1999.90;999.90;;;10.70;99.90;;;;;;5074425;28;20077;-78
2023/10/25 12:46:41;;;;;;;1999.90;999.90;;;10.60;99.90;;;;;;5074268;28;20062;-78
2023/10/25 12:49:08;;;;;;;1999.90;999.90;;;10.60;99.90;;;;;;5074520;28;20040;-78
2023/10/25 12:51:35;;;;;;;1999.90;999.90;;;10.60;99.90;;;;;;5074489;28;20464;-79
2023/10/25 12:54:00;;;;;;;1999.90;999.90;;;10.60;99.90;;;;;;5074065;28;20428;-78
2023/10/25 12:56:27;;;;;;;1999.90;999.90;;;10.60;99.90;;;;;;5073896;28;20059;-79
2023/10/25 12:58:54;;;;;;;1999.90;999.90;;;10.60;99.90;;;;;;5074001;28;20499;-78
2023/10/25 13:01:19;;;;;;;1999.90;999.90;;;10.50;99.90;;;;;;5074347;28;20487;-79
2023/10/25 13:03:46;;;;;;;1999.90;999.90;;;10.50;99.90;;;;;;5075031;28;20047;-79
2023/10/25 13:06:12;;;;;;;1999.90;999.90;;;10.50;99.90;;;;;;5073996;28;20036;-80
2023/10/25 13:08:38;;;;;;;1999.90;999.90;;;10.50;99.90;;;;;;5074062;28;20075;-79
2023/10/25 13:11:03;;;;;;;1999.90;999.90;;;10.50;99.90;;;;;;5075439;28;20415;-80
2023/10/25 13:13:29;;;;;;;1999.90;999.90;;;10.50;99.90;;;;;;5074207;28;20156;-79
2023/10/25 13:15:55;;;;;;;1999.90;999.90;;;10.50;99.90;;;;;;5073897;28;20130;-79
2023/10/25 13:18:21;;;;;;;1999.90;999.90;;;10.40;99.90;;;;;;5073830;28;20037;-79
2023/10/25 13:20:48;;;;;;;1999.90;999.90;;;10.40;99.90;;;;;;5074096;28;20036;-79
2023/10/25 13:23:13;;;;;;;1999.90;999.90;;;10.40;99.90;;;;;;5073642;28;20047;-79
2023/10/25 13:25:39;;;;;;;1999.90;999.90;;;10.40;99.90;;;;;;5073607;28;20119;-79
2023/10/25 13:28:05;;;;;;;1999.90;999.90;;;10.40;99.90;;;;;;5073732;28;20072;-78
2023/10/25 13:30:31;;;;;;;1999.90;999.90;;;10.40;99.90;;;;;;5073521;28;20068;-80
2023/10/25 13:32:57;;;;;;;1999.90;999.90;;;10.40;99.90;;;;;;5073791;28;20041;-79
2023/10/25 13:35:23;;;;;;;1999.90;999.90;;;10.40;99.90;;;;;;5073711;28;20044;-79
2023/10/25 13:37:48;;;;;;;1999.90;999.90;;;10.40;99.90;;;;;;5073352;28;20115;-79
2023/10/25 13:40:14;;;;;;;1999.90;999.90;;;10.40;99.90;;;;;;5073312;28;20080;-79
2023/10/25 13:42:40;;;;;;;1999.90;999.90;;;10.40;99.90;;;;;;5056690;28;20063;-79